createdAt,value
2024-02-19T00:01:22.691Z,9.50
2024-02-19T00:04:28.222Z,9.50
2024-02-19T00:07:35.895Z,9.50
2024-02-19T00:10:44.102Z,9.50
2024-02-19T00:13:51.627Z,9.40
2024-02-19T00:16:57.590Z,9.40
2024-02-19T00:20:05.221Z,9.40
2024-02-19T00:23:10.761Z,9.40
2024-02-19T00:26:20.760Z,9.40
2024-02-19T00:29:26.513Z,9.40
2024-02-19T00:32:34.302Z,9.40
2024-02-19T00:35:39.962Z,9.30
2024-02-19T00:38:47.416Z,9.30
2024-02-19T00:41:55.511Z,9.30
2024-02-19T00:45:02.946Z,9.30
2024-02-19T00:48:09.543Z,9.30
2024-02-19T00:51:17.052Z,9.20
2024-02-19T00:54:22.544Z,9.20
2024-02-19T00:57:32.612Z,9.20
2024-02-19T01:00:38.369Z,9.20
2024-02-19T01:03:47.938Z,9.20
2024-02-19T01:06:53.495Z,9.10
2024-02-19T01:10:01.095Z,9.20
2024-02-19T01:13:09.316Z,9.20
2024-02-19T01:16:17.025Z,9.10
2024-02-19T01:19:23.073Z,9.10
2024-02-19T01:22:31.040Z,9.10
2024-02-19T01:25:36.509Z,9.10
2024-02-19T01:28:46.678Z,9.00
2024-02-19T01:31:52.134Z,9.00
2024-02-19T01:34:59.732Z,9.10
2024-02-19T01:38:05.599Z,9.20
2024-02-19T01:41:13.096Z,9.10
2024-02-19T01:44:21.778Z,9.00
2024-02-19T01:47:29.472Z,9.00
2024-02-19T01:50:37.836Z,9.00
2024-02-19T01:53:46.379Z,9.00
2024-02-19T01:56:53.241Z,9.00
2024-02-19T02:00:07.310Z,9.10
2024-02-19T02:03:20.926Z,9.00
2024-02-19T02:06:28.564Z,9.10
2024-02-19T02:09:34.572Z,9.00
2024-02-19T02:12:42.217Z,9.00
2024-02-19T02:15:50.319Z,9.00
2024-02-19T02:18:57.952Z,9.00
2024-02-19T02:22:03.629Z,9.10
2024-02-19T02:25:11.717Z,9.10
2024-02-19T02:28:19.943Z,9.00
2024-02-19T02:31:27.466Z,9.10
2024-02-19T02:34:33.087Z,9.00
2024-02-19T02:37:40.516Z,9.10
2024-02-19T02:40:46.072Z,9.10
2024-02-19T02:43:56.087Z,9.10
2024-02-19T02:47:01.569Z,9.10
2024-02-19T02:50:10.271Z,9.10
2024-02-19T02:53:15.824Z,9.00
2024-02-19T02:56:23.572Z,9.10
2024-02-19T02:59:31.708Z,9.00
2024-02-19T03:02:39.282Z,9.10
2024-02-19T03:05:44.715Z,9.10
2024-02-19T03:08:52.359Z,9.10
2024-02-19T03:11:57.854Z,9.10
2024-02-19T03:15:08.702Z,9.10
2024-02-19T03:18:14.219Z,9.10
2024-02-19T03:21:22.238Z,9.00
2024-02-19T03:24:27.704Z,9.00
2024-02-19T03:27:35.159Z,9.00
2024-02-19T03:30:43.460Z,9.10
2024-02-19T03:33:51.082Z,9.00
2024-02-19T03:36:56.650Z,9.10
2024-02-19T03:40:08.071Z,9.10
2024-02-19T03:43:14.130Z,9.10
2024-02-19T03:46:24.335Z,9.10
2024-02-19T03:49:29.982Z,9.10
2024-02-19T03:52:37.452Z,9.10
2024-02-19T03:55:42.916Z,9.10
2024-02-19T03:58:50.678Z,9.10
2024-02-19T04:01:58.802Z,9.10
2024-02-19T04:05:06.615Z,9.20
2024-02-19T04:08:12.161Z,9.10
2024-02-19T04:11:20.230Z,9.20
2024-02-19T04:14:26.260Z,9.20
2024-02-19T04:17:36.812Z,9.20
2024-02-19T04:20:42.359Z,9.20
2024-02-19T04:23:49.820Z,9.30
2024-02-19T04:26:55.323Z,9.30
2024-02-19T04:30:02.858Z,9.30
2024-02-19T04:33:11.186Z,9.30
2024-02-19T04:36:18.847Z,9.30
2024-02-19T04:39:24.274Z,9.30
2024-02-19T04:42:31.716Z,9.40
2024-02-19T04:45:37.251Z,9.30
2024-02-19T04:48:47.415Z,9.30
2024-02-19T04:51:52.896Z,9.30
2024-02-19T04:55:00.613Z,9.30
2024-02-19T04:58:06.509Z,9.30
2024-02-19T05:01:14.306Z,9.30
2024-02-19T05:04:23.293Z,9.40
2024-02-19T05:07:30.844Z,9.40
2024-02-19T05:10:36.565Z,9.30
2024-02-19T05:13:44.113Z,9.40
2024-02-19T05:16:49.607Z,9.40
2024-02-19T05:19:59.695Z,9.40
2024-02-19T05:23:05.303Z,9.40
2024-02-19T05:26:12.808Z,9.40
2024-02-19T05:29:18.212Z,9.40
2024-02-19T05:32:25.992Z,9.40
2024-02-19T05:35:34.058Z,9.50
2024-02-19T05:38:41.523Z,9.40
2024-02-19T05:41:47.505Z,9.40
2024-02-19T05:44:55.037Z,9.40
2024-02-19T05:48:00.919Z,9.50
2024-02-19T05:51:11.466Z,9.40
2024-02-19T05:54:16.962Z,9.40
2024-02-19T05:57:24.458Z,9.50
2024-02-19T06:00:31.357Z,9.40
2024-02-19T06:03:39.274Z,9.40
2024-02-19T06:06:47.512Z,9.50
2024-02-19T06:09:55.226Z,9.40
2024-02-19T06:13:00.877Z,9.40
2024-02-19T06:16:09.228Z,9.50
2024-02-19T06:19:16.859Z,9.40
2024-02-19T06:22:27.003Z,9.50
2024-02-19T06:25:32.556Z,9.50
2024-02-19T06:28:40.472Z,9.50
2024-02-19T06:31:47.558Z,9.50
2024-02-19T06:34:55.163Z,9.50
2024-02-19T06:38:04.217Z,9.50
2024-02-19T06:41:11.743Z,9.50
2024-02-19T06:44:17.229Z,9.50
2024-02-19T06:47:24.808Z,9.50
2024-02-19T06:50:30.325Z,9.60
2024-02-19T06:53:40.467Z,9.60
2024-02-19T06:56:45.997Z,9.60
2024-02-19T06:59:54.172Z,9.60
2024-02-19T07:02:59.636Z,9.60
2024-02-19T07:06:08.177Z,9.50
2024-02-19T07:09:16.313Z,9.60
2024-02-19T07:12:23.812Z,9.60
2024-02-19T07:15:29.679Z,9.60
2024-02-19T07:18:37.296Z,9.60
2024-02-19T07:21:43.005Z,9.60
2024-02-19T07:24:59.294Z,9.60
2024-02-19T07:28:11.643Z,9.60
2024-02-19T07:31:19.415Z,9.60
2024-02-19T07:34:25.002Z,9.60
2024-02-19T07:37:32.774Z,9.60
2024-02-19T07:40:40.978Z,9.60
2024-02-19T07:43:48.869Z,9.70
2024-02-19T07:46:54.301Z,9.70
2024-02-19T07:50:02.020Z,9.70
2024-02-19T07:53:08.011Z,9.70
2024-02-19T07:56:20.987Z,9.70
2024-02-19T07:59:27.059Z,9.70
2024-02-19T08:02:34.538Z,9.70
2024-02-19T08:05:40.407Z,9.80
2024-02-19T08:08:47.932Z,9.80
2024-02-19T08:11:59.045Z,9.90
2024-02-19T08:15:08.294Z,9.90
2024-02-19T08:18:13.939Z,9.90
2024-02-19T08:21:21.484Z,9.90
2024-02-19T08:24:26.918Z,10.00
2024-02-19T08:27:37.022Z,9.90
2024-02-19T08:30:42.596Z,10.00
2024-02-19T08:33:50.250Z,10.00
2024-02-19T08:36:56.645Z,10.00
2024-02-19T08:40:04.131Z,10.20
2024-02-19T08:43:13.080Z,10.10
2024-02-19T08:46:20.733Z,10.10
2024-02-19T08:49:27.298Z,10.20
2024-02-19T08:52:34.892Z,10.30
2024-02-19T08:55:40.461Z,10.30
2024-02-19T08:58:50.580Z,10.50
2024-02-19T09:01:56.163Z,10.40
2024-02-19T09:05:03.730Z,10.40
2024-02-19T09:08:10.620Z,10.40
2024-02-19T09:11:18.214Z,10.40
2024-02-19T09:14:28.165Z,10.50
2024-02-19T09:17:35.705Z,10.50
2024-02-19T09:20:41.188Z,10.60
2024-02-19T09:23:48.662Z,10.60
2024-02-19T09:26:54.156Z,10.70
2024-02-19T09:30:05.238Z,10.70
2024-02-19T09:33:10.846Z,10.70
2024-02-19T09:36:20.392Z,10.80
2024-02-19T09:39:25.802Z,10.80
2024-02-19T09:42:34.276Z,10.90
2024-02-19T09:45:42.502Z,11.00
2024-02-19T09:48:52.574Z,10.90
2024-02-19T09:52:00.387Z,11.00
2024-02-19T09:55:10.540Z,11.00
2024-02-19T09:58:16.094Z,11.10
2024-02-19T10:01:26.316Z,11.10
2024-02-19T10:04:32.962Z,11.20
2024-02-19T10:07:40.572Z,11.10
2024-02-19T10:10:47.421Z,11.20
2024-02-19T10:13:54.970Z,11.30
2024-02-19T10:17:06.465Z,11.30
2024-02-19T10:20:15.336Z,11.30
2024-02-19T10:23:24.304Z,11.30
2024-02-19T10:26:32.147Z,11.30
2024-02-19T10:29:37.602Z,11.30
2024-02-19T10:32:47.793Z,11.40
2024-02-19T10:35:53.632Z,11.40
2024-02-19T10:39:01.110Z,11.40
2024-02-19T10:42:08.016Z,11.50
2024-02-19T10:45:15.885Z,11.40
2024-02-19T10:48:24.408Z,11.50
2024-02-19T10:51:33.435Z,11.50
2024-02-19T10:54:38.906Z,11.50
2024-02-19T10:57:52.558Z,11.50
2024-02-19T11:01:05.709Z,11.50
2024-02-19T11:04:25.149Z,11.50
2024-02-19T11:07:35.708Z,11.60
2024-02-19T11:10:44.934Z,11.60
2024-02-19T11:13:52.548Z,11.60
2024-02-19T11:16:58.436Z,11.60
2024-02-19T11:20:11.033Z,11.70
2024-02-19T11:23:17.544Z,11.70
2024-02-19T11:26:25.241Z,11.70
2024-02-19T11:29:36.640Z,11.80
2024-02-19T11:32:51.218Z,11.80
2024-02-19T11:36:00.134Z,12.00
2024-02-19T11:39:09.060Z,12.00
2024-02-19T11:42:16.727Z,12.00
2024-02-19T11:45:24.803Z,12.10
2024-02-19T11:48:31.161Z,12.10
2024-02-19T11:51:41.580Z,12.10
2024-02-19T11:54:47.207Z,12.10
2024-02-19T11:57:55.170Z,12.20
2024-02-19T12:01:01.599Z,12.20
2024-02-19T12:04:09.913Z,12.30
2024-02-19T12:07:18.094Z,12.20
2024-02-19T12:10:25.833Z,12.20
2024-02-19T12:13:34.027Z,12.30
2024-02-19T12:16:41.732Z,12.30
2024-02-19T12:19:47.227Z,12.30
2024-02-19T12:22:57.940Z,12.30
2024-02-19T12:26:05.043Z,12.30
2024-02-19T12:29:13.874Z,12.30
2024-02-19T12:32:19.308Z,12.20
2024-02-19T12:35:27.043Z,12.30
2024-02-19T12:38:35.348Z,12.20
2024-02-19T12:41:45.016Z,12.40
2024-02-19T12:44:50.475Z,12.30
2024-02-19T12:47:58.133Z,12.30
2024-02-19T12:51:04.821Z,12.30
2024-02-19T12:54:15.231Z,12.30
2024-02-19T12:57:22.499Z,12.30
2024-02-19T13:00:30.241Z,12.30
2024-02-19T13:03:35.787Z,12.30
2024-02-19T13:06:43.277Z,12.30
2024-02-19T13:09:51.398Z,12.30
2024-02-19T13:12:58.860Z,12.30
2024-02-19T13:16:04.564Z,12.30
2024-02-19T13:19:13.141Z,12.30
2024-02-19T13:22:18.768Z,12.20
2024-02-19T13:25:29.014Z,12.20
2024-02-19T13:28:35.029Z,12.20
2024-02-19T13:31:42.773Z,12.20
2024-02-19T13:34:48.846Z,12.10
2024-02-19T13:37:58.248Z,12.10
2024-02-19T13:41:06.434Z,12.10
2024-02-19T13:44:14.908Z,12.10
2024-02-19T13:47:22.947Z,12.20
2024-02-19T13:50:31.068Z,12.10
2024-02-19T13:53:36.696Z,12.00
2024-02-19T13:56:46.851Z,12.00
2024-02-19T13:59:52.786Z,12.00
2024-02-19T14:03:00.247Z,12.00
2024-02-19T14:06:06.041Z,12.00
2024-02-19T14:09:14.506Z,12.00
2024-02-19T14:12:22.512Z,12.00
2024-02-19T14:15:30.004Z,12.00
2024-02-19T14:18:35.539Z,12.00
2024-02-19T14:21:43.092Z,12.00
2024-02-19T14:24:48.814Z,11.90
2024-02-19T14:28:00.992Z,12.00
2024-02-19T14:31:06.924Z,12.00
2024-02-19T14:34:14.591Z,11.90
2024-02-19T14:37:20.194Z,11.90
2024-02-19T14:40:27.749Z,11.90
2024-02-19T14:43:36.427Z,11.90
2024-02-19T14:46:51.713Z,12.00
2024-02-19T14:50:03.761Z,11.90
2024-02-19T14:53:11.754Z,11.90
2024-02-19T14:56:17.370Z,11.80
2024-02-19T14:59:28.103Z,11.90
2024-02-19T15:02:33.701Z,11.80
2024-02-19T15:05:41.596Z,11.90
2024-02-19T15:08:50.132Z,11.90
2024-02-19T15:11:57.630Z,11.90
2024-02-19T15:15:07.442Z,11.80
2024-02-19T15:18:16.582Z,11.90
2024-02-19T15:21:22.401Z,11.90
2024-02-19T15:24:29.939Z,11.80
2024-02-19T15:27:37.506Z,11.90
2024-02-19T15:30:47.945Z,11.80
2024-02-19T15:33:53.578Z,11.80
2024-02-19T15:37:01.470Z,11.80
2024-02-19T15:40:07.940Z,11.70
2024-02-19T15:43:15.569Z,11.70
2024-02-19T15:46:23.756Z,11.70
2024-02-19T15:49:31.288Z,11.70
2024-02-19T15:52:37.773Z,11.60
2024-02-19T15:55:45.269Z,11.60
2024-02-19T15:58:50.880Z,11.60
2024-02-19T16:02:04.208Z,11.60
2024-02-19T16:05:11.972Z,11.70
2024-02-19T16:08:42.582Z,11.50
2024-02-19T16:11:48.990Z,11.60
2024-02-19T16:14:56.581Z,11.40
2024-02-19T16:18:06.107Z,11.50
2024-02-19T16:21:16.362Z,11.40
2024-02-19T16:24:21.912Z,11.40
2024-02-19T16:27:30.006Z,11.20
2024-02-19T16:30:35.477Z,11.40
2024-02-19T16:33:45.655Z,11.40
2024-02-19T16:36:51.323Z,11.30
2024-02-19T16:39:58.888Z,11.30
2024-02-19T16:43:04.560Z,11.40
2024-02-19T16:46:12.954Z,11.30
2024-02-19T16:49:21.186Z,11.30
2024-02-19T16:52:28.838Z,11.30
2024-02-19T16:55:34.535Z,11.30
2024-02-19T16:58:42.255Z,11.20
2024-02-19T17:01:48.419Z,11.20
2024-02-19T17:04:58.877Z,11.20
2024-02-19T17:08:05.452Z,11.20
2024-02-19T17:11:13.026Z,11.20
2024-02-19T17:14:18.661Z,11.20
2024-02-19T17:17:26.406Z,11.30
2024-02-19T17:20:34.569Z,11.20
2024-02-19T17:23:45.558Z,11.10
2024-02-19T17:26:51.869Z,11.10
2024-02-19T17:29:59.336Z,11.20
2024-02-19T17:33:05.823Z,11.10
2024-02-19T17:36:15.990Z,11.10
2024-02-19T17:39:24.803Z,11.10
2024-02-19T17:42:33.578Z,11.10
2024-02-19T17:45:39.280Z,11.10
2024-02-19T17:48:49.583Z,11.00
2024-02-19T17:51:57.858Z,11.00
2024-02-19T17:55:05.436Z,11.00
2024-02-19T17:58:10.969Z,11.00
2024-02-19T18:01:18.538Z,11.00
2024-02-19T18:04:24.139Z,11.00
2024-02-19T18:07:34.348Z,10.80
2024-02-19T18:10:39.946Z,11.00
2024-02-19T18:13:47.660Z,10.90
2024-02-19T18:16:53.225Z,10.90
2024-02-19T18:20:00.952Z,10.90
2024-02-19T18:23:11.313Z,10.90
2024-02-19T18:26:20.277Z,10.80
2024-02-19T18:29:26.369Z,10.80
2024-02-19T18:32:38.784Z,10.80
2024-02-19T18:35:44.408Z,10.80
2024-02-19T18:38:54.697Z,10.70
2024-02-19T18:42:01.386Z,10.80
2024-02-19T18:45:10.901Z,10.70
2024-02-19T18:48:16.487Z,10.60
2024-02-19T18:51:24.023Z,10.70
2024-02-19T18:54:32.939Z,10.60
2024-02-19T18:57:40.513Z,10.60
2024-02-19T19:00:46.092Z,10.60
2024-02-19T19:03:53.623Z,10.60
2024-02-19T19:06:59.212Z,10.60
2024-02-19T19:10:10.114Z,10.60
2024-02-19T19:13:16.155Z,10.50
2024-02-19T19:16:23.711Z,10.50
2024-02-19T19:19:29.757Z,10.50
2024-02-19T19:22:37.438Z,10.40
2024-02-19T19:25:45.511Z,10.50
2024-02-19T19:28:53.034Z,10.40
2024-02-19T19:31:58.544Z,10.40
2024-02-19T19:35:06.216Z,10.40
2024-02-19T19:38:12.091Z,10.30
2024-02-19T19:41:22.251Z,10.30
2024-02-19T19:44:27.821Z,10.30
2024-02-19T19:47:35.923Z,10.30
2024-02-19T19:50:41.497Z,10.30
2024-02-19T19:53:48.964Z,10.30
2024-02-19T19:56:57.419Z,10.30
2024-02-19T20:00:06.702Z,10.20
2024-02-19T20:03:12.345Z,10.20
2024-02-19T20:06:19.955Z,10.20
2024-02-19T20:09:26.531Z,10.20
2024-02-19T20:12:37.045Z,10.20
2024-02-19T20:15:42.615Z,10.20
2024-02-19T20:18:50.242Z,10.10
2024-02-19T20:21:55.849Z,10.10
2024-02-19T20:25:04.463Z,10.10
2024-02-19T20:28:12.774Z,10.10
2024-02-19T20:31:20.316Z,10.00
2024-02-19T20:34:27.994Z,10.10
2024-02-19T20:37:36.101Z,10.00
2024-02-19T20:40:41.593Z,10.00
2024-02-19T20:43:51.737Z,10.10
2024-02-19T20:46:57.245Z,10.00
2024-02-19T20:50:05.673Z,10.00
2024-02-19T20:53:14.807Z,10.00
2024-02-19T20:56:22.406Z,10.00
2024-02-19T20:59:33.169Z,9.90
2024-02-19T21:02:42.619Z,10.00
2024-02-19T21:05:48.412Z,10.00
2024-02-19T21:08:55.906Z,9.90
2024-02-19T21:12:01.421Z,9.90
2024-02-19T21:15:12.969Z,9.90
2024-02-19T21:18:30.760Z,9.80
2024-02-19T21:21:42.124Z,9.80
2024-02-19T21:24:47.617Z,9.90
2024-02-19T21:27:55.158Z,9.90
2024-02-19T21:31:03.945Z,9.80
2024-02-19T21:34:13.044Z,9.80
2024-02-19T21:37:19.301Z,9.80
2024-02-19T21:40:27.365Z,9.80
2024-02-19T21:43:33.157Z,9.80
2024-02-19T21:46:44.168Z,9.80
2024-02-19T21:49:49.740Z,9.80
2024-02-19T21:52:57.280Z,9.80
2024-02-19T21:56:02.702Z,9.80
2024-02-19T21:59:10.236Z,9.80
2024-02-19T22:02:18.360Z,9.70
2024-02-19T22:05:26.042Z,9.80
2024-02-19T22:08:31.900Z,9.80
2024-02-19T22:11:39.460Z,9.70
2024-02-19T22:14:45.633Z,9.70
2024-02-19T22:17:56.180Z,9.70
2024-02-19T22:21:01.761Z,9.70
2024-02-19T22:24:09.758Z,9.70
2024-02-19T22:27:15.608Z,9.60
2024-02-19T22:30:24.399Z,9.60
2024-02-19T22:33:33.530Z,9.60
2024-02-19T22:36:41.007Z,9.60
2024-02-19T22:39:46.547Z,9.50
2024-02-19T22:42:54.073Z,9.50
2024-02-19T22:45:59.696Z,9.50
2024-02-19T22:49:09.988Z,9.50
2024-02-19T22:52:15.576Z,9.40
2024-02-19T22:55:23.072Z,9.50
2024-02-19T22:58:32.966Z,9.40
2024-02-19T23:01:42.641Z,9.40
2024-02-19T23:04:50.792Z,9.40
2024-02-19T23:08:00.138Z,9.30
2024-02-19T23:11:07.422Z,9.30
2024-02-19T23:14:16.862Z,9.20
2024-02-19T23:17:22.478Z,9.30
2024-02-19T23:20:32.606Z,9.20
2024-02-19T23:23:38.255Z,9.30
2024-02-19T23:26:45.689Z,9.20
2024-02-19T23:29:51.214Z,9.20
2024-02-19T23:32:58.797Z,9.20
2024-02-19T23:36:08.896Z,9.10
2024-02-19T23:39:16.400Z,9.10
2024-02-19T23:42:21.941Z,9.10
2024-02-19T23:45:29.445Z,9.10
2024-02-19T23:48:36.157Z,9.00
2024-02-19T23:51:51.168Z,9.00
2024-02-19T23:54:59.345Z,9.00
2024-02-19T23:58:07.375Z,9.20
